Time;durP1;ratioP1;P1;durP2;ratioP2;P2;SDS_P1;SDS_P2;PMS_P1;PMS_P2;Temp;Humidity;BMP_temperature;BMP_pressure;BME280_temperature;BME280_humidity;BME280_pressure;Samples;Min_cycle;Max_cycle;Signal;HPM_P1;HPM_P2
2022/07/25 00:00:23;;;;;;;14.03;13.10;;;;;;;28.84;43.85;95124.97;6259807;27;104350;-56
2022/07/25 00:03:26;;;;;;;13.63;12.73;;;;;;;28.62;44.02;95120.97;6249490;27;104756;-56
2022/07/25 00:06:30;;;;;;;13.87;12.87;;;;;;;28.48;44.38;95122.50;6276736;27;103315;-56
2022/07/25 00:09:33;;;;;;;13.53;12.63;;;;;;;28.32;44.98;95128.63;6282754;27;103248;-58
2022/07/25 00:12:36;;;;;;;13.80;12.90;;;;;;;28.13;45.27;95128.47;6267069;27;104218;-56
2022/07/25 00:15:41;;;;;;;12.93;11.83;;;;;;;27.95;46.07;95129.91;6256688;27;103307;-58
2022/07/25 00:18:44;;;;;;;13.50;12.50;;;;;;;28.14;45.50;95126.56;6271849;27;103337;-58
2022/07/25 00:21:47;;;;;;;13.10;12.20;;;;;;;28.25;44.94;95122.28;6277923;27;104381;-56
2022/07/25 00:24:50;;;;;;;13.93;13.00;;;;;;;28.27;44.42;95120.81;6249253;27;104214;-60
2022/07/25 00:27:54;;;;;;;13.40;12.50;;;;;;;28.28;44.47;95118.88;6263024;27;104235;-56
2022/07/25 00:30:58;;;;;;;13.23;12.33;;;;;;;28.40;44.50;95107.28;6276295;27;103168;-57
2022/07/25 00:34:01;;;;;;;13.83;12.73;;;;;;;28.57;43.98;95115.84;6280583;27;103021;-56
2022/07/25 00:37:05;;;;;;;13.77;12.87;;;;;;;28.71;43.71;95107.34;6266067;27;104124;-56
2022/07/25 00:40:10;;;;;;;13.37;12.47;;;;;;;28.82;44.16;95104.91;6260937;27;103091;-56
2022/07/25 00:43:13;;;;;;;13.60;12.70;;;;;;;28.84;43.77;95102.66;6258950;27;103934;-57
2022/07/25 00:46:18;;;;;;;14.23;13.33;;;;;;;28.80;43.93;95105.25;6282368;27;103723;-57
2022/07/25 00:49:22;;;;;;;13.80;12.60;;;;;;;28.81;43.98;95106.03;6271659;27;104068;-57
2022/07/25 00:52:25;;;;;;;14.60;13.47;;;;;;;28.67;44.34;95101.06;6278187;27;103159;-57
2022/07/25 00:55:30;;;;;;;21.03;19.53;;;;;;;28.75;43.55;95104.75;6271934;27;103608;-56
2022/07/25 00:58:33;;;;;;;15.67;14.53;;;;;;;28.70;43.65;95113.06;6266978;27;103162;-61
2022/07/25 01:01:39;;;;;;;16.07;14.70;;;;;;;28.55;43.94;95120.78;6272893;27;103548;-57
2022/07/25 01:04:42;;;;;;;15.33;14.13;;;;;;;28.49;44.46;95111.41;6283564;27;103021;-59
2022/07/25 01:07:47;;;;;;;14.30;13.40;;;;;;;28.47;44.83;95110.19;6281790;27;103227;-59
2022/07/25 01:10:50;;;;;;;17.23;16.03;;;;;;;28.34;44.99;95110.22;6261048;27;104177;-59
2022/07/25 01:13:53;;;;;;;16.90;15.80;;;;;;;28.21;45.41;95110.59;6272059;27;103181;-59
2022/07/25 01:16:58;;;;;;;15.60;14.50;;;;;;;28.07;45.47;95110.25;6283927;27;103212;-59
2022/07/25 01:20:01;;;;;;;15.57;14.30;;;;;;;28.18;44.85;95112.09;6280502;27;104130;-59
2022/07/25 01:23:06;;;;;;;16.00;14.90;;;;;;;28.27;44.88;95104.66;6268830;27;104051;-59
2022/07/25 01:26:09;;;;;;;15.83;14.63;;;;;;;28.43;44.88;95107.38;6278954;27;104259;-58
2022/07/25 01:29:12;;;;;;;14.23;13.23;;;;;;;28.50;44.61;95102.19;6241870;27;104031;-59
2022/07/25 01:32:15;;;;;;;15.00;14.00;;;;;;;28.37;45.34;95103.34;6262239;27;103948;-59
2022/07/25 01:35:18;;;;;;;14.90;13.80;;;;;;;28.36;44.87;95104.47;6263495;27;102937;-59
2022/07/25 01:38:23;;;;;;;15.37;14.27;;;;;;;28.18;45.64;95100.53;6265413;27;104441;-59
2022/07/25 01:41:26;;;;;;;14.70;13.63;;;;;;;28.41;44.85;95101.56;6271072;27;103030;-59
2022/07/25 01:44:29;;;;;;;14.60;13.50;;;;;;;28.52;44.41;95099.94;6260531;27;103190;-59
2022/07/25 01:47:32;;;;;;;15.20;14.00;;;;;;;28.42;44.91;95108.50;6273949;27;104297;-60
2022/07/25 01:50:36;;;;;;;14.93;13.97;;;;;;;28.41;44.50;95112.31;6269638;27;104198;-59
2022/07/25 01:53:40;;;;;;;14.93;13.80;;;;;;;28.42;44.99;95116.59;6266945;27;103268;-59
2022/07/25 01:56:46;;;;;;;15.40;14.20;;;;;;;28.40;44.84;95113.47;6270780;27;104240;-59
2022/07/25 01:59:50;;;;;;;15.83;14.73;;;;;;;28.31;45.22;95116.28;6248445;27;103082;-59
2022/07/25 02:03:28;;;;;;;15.77;14.73;;;;;;;28.10;45.70;95115.72;6261775;27;103177;-60
2022/07/25 02:06:18;;;;;;;15.60;14.50;;;;;;;28.04;45.86;95119.75;6253047;27;105345;-59
2022/07/25 02:09:22;;;;;;;15.57;14.37;;;;;;;28.10;45.21;95121.09;6257960;27;104631;-59
2022/07/25 02:12:25;;;;;;;14.97;13.90;;;;;;;28.15;45.12;95120.06;6281333;27;103189;-59
2022/07/25 02:15:28;;;;;;;16.70;15.50;;;;;;;28.16;44.93;95113.56;6281571;27;103549;-59
2022/07/25 02:18:31;;;;;;;16.50;15.30;;;;;;;28.27;45.33;95120.03;6248209;27;103180;-59
2022/07/25 02:21:35;;;;;;;15.50;14.40;;;;;;;28.41;44.58;95112.31;6262017;27;104300;-59
2022/07/25 02:24:39;;;;;;;13.90;12.90;;;;;;;28.46;44.89;95106.72;6272033;27;105056;-60
2022/07/25 02:27:43;;;;;;;15.20;14.10;;;;;;;28.52;44.73;95110.69;6256969;27;103527;-59
2022/07/25 02:30:46;;;;;;;14.80;13.80;;;;;;;28.67;44.68;95119.94;6253377;27;103162;-59
2022/07/25 02:33:49;;;;;;;14.57;13.47;;;;;;;28.49;45.01;95105.22;6276936;27;103466;-59
2022/07/25 02:36:52;;;;;;;14.60;13.40;;;;;;;28.55;44.15;95111.91;6270187;27;104208;-59
2022/07/25 02:39:56;;;;;;;14.77;13.67;;;;;;;28.51;44.63;95111.84;6275485;27;103513;-60
2022/07/25 02:42:59;;;;;;;13.53;12.53;;;;;;;28.36;44.74;95107.16;6271182;27;104074;-59
2022/07/25 02:46:03;;;;;;;15.57;14.37;;;;;;;28.05;45.51;95097.88;6280817;27;103305;-59
2022/07/25 02:49:06;;;;;;;13.80;12.90;;;;;;;27.93;45.89;95097.97;6281496;27;104018;-59
2022/07/25 02:52:09;;;;;;;15.00;13.90;;;;;;;27.84;46.13;95101.88;6263840;27;103987;-59
2022/07/25 02:55:14;;;;;;;15.93;14.90;;;;;;;27.75;46.05;95099.34;6281170;27;104300;-59
2022/07/25 02:58:17;;;;;;;15.00;13.77;;;;;;;27.91;46.28;95105.59;6272294;27;102883;-59
2022/07/25 03:01:20;;;;;;;14.50;13.50;;;;;;;27.88;46.10;95108.94;6284226;27;104307;-59
2022/07/25 03:04:23;;;;;;;14.87;13.70;;;;;;;27.87;45.93;95111.97;6268309;27;103844;-59
2022/07/25 03:07:26;;;;;;;15.37;14.30;;;;;;;27.85;46.02;95114.19;6270950;27;103321;-60
2022/07/25 03:10:31;;;;;;;15.13;14.10;;;;;;;28.08;45.29;95112.59;6271592;27;103254;-59
2022/07/25 03:13:34;;;;;;;14.20;13.20;;;;;;;28.29;45.38;95113.16;6258997;27;103113;-56
2022/07/25 03:16:37;;;;;;;14.90;13.80;;;;;;;28.39;45.09;95117.25;6253881;27;104087;-56
2022/07/25 03:19:40;;;;;;;14.13;13.03;;;;;;;28.52;44.39;95118.78;6267350;27;103605;-62
2022/07/25 03:22:43;;;;;;;14.80;13.70;;;;;;;28.48;45.10;95117.13;6265301;27;103207;-58
2022/07/25 03:25:48;;;;;;;14.93;13.93;;;;;;;28.36;45.14;95115.25;6268379;27;104657;-61
2022/07/25 03:28:51;;;;;;;15.90;14.53;;;;;;;28.25;45.70;95120.38;6257592;27;104127;-58
2022/07/25 03:31:54;;;;;;;15.13;14.03;;;;;;;28.09;45.25;95113.38;6259824;27;103127;-61
2022/07/25 03:34:57;;;;;;;14.00;12.90;;;;;;;28.21;45.37;95110.59;6262110;27;104148;-60
2022/07/25 03:38:00;;;;;;;14.83;13.63;;;;;;;28.22;44.91;95118.34;6254627;27;103713;-59
2022/07/25 03:41:05;;;;;;;16.03;14.73;;;;;;;28.11;45.53;95116.50;6252992;27;104038;-60
2022/07/25 03:44:09;;;;;;;16.77;14.77;;;;;;;27.91;46.49;95119.03;6270164;27;104257;-62
2022/07/25 03:47:12;;;;;;;16.27;15.07;;;;;;;27.73;46.75;95115.81;6284292;27;104119;-62
2022/07/25 03:50:22;;;;;;;14.40;13.30;;;;;;;27.81;46.40;95116.78;6263465;27;105301;-61
2022/07/25 03:53:26;;;;;;;14.67;13.57;;;;;;;27.97;46.23;95120.34;6262402;27;104264;-66
2022/07/25 03:56:31;;;;;;;14.33;13.23;;;;;;;28.25;45.24;95125.75;6263870;27;104019;-67
2022/07/25 03:59:34;;;;;;;15.50;14.50;;;;;;;28.45;45.38;95131.25;6260265;27;103301;-58
2022/07/25 04:02:38;;;;;;;16.70;15.17;;;;;;;28.59;44.50;95131.66;6255484;27;105649;-65
2022/07/25 04:05:42;;;;;;;15.70;14.37;;;;;;;28.67;44.20;95143.38;6261674;27;104113;-66
2022/07/25 04:08:50;;;;;;;17.27;15.87;;;;;;;28.76;44.26;95128.66;6267529;27;103974;-65
2022/07/25 04:11:57;;;;;;;15.97;14.87;;;;;;;28.72;44.21;95126.97;6269097;27;104727;-63
2022/07/25 04:15:00;;;;;;;16.13;14.53;;;;;;;28.81;44.27;95127.59;6282957;27;104238;-64
2022/07/25 04:18:03;;;;;;;17.23;14.20;;;;;;;28.87;43.88;95123.50;6277877;27;104191;-62
2022/07/25 04:21:09;;;;;;;16.50;15.10;;;;;;;28.63;44.39;95122.53;6260793;27;103003;-62
2022/07/25 04:24:13;;;;;;;16.00;14.53;;;;;;;28.37;44.92;95122.19;6250297;27;104289;-60
2022/07/25 04:27:17;;;;;;;15.80;14.30;;;;;;;28.21;44.91;95122.16;6260706;27;103675;-62
2022/07/25 04:30:20;;;;;;;15.00;13.80;;;;;;;28.33;45.30;95115.94;6267718;27;102966;-63
2022/07/25 04:33:26;;;;;;;16.27;14.63;;;;;;;27.95;45.24;95124.50;6260721;27;103193;-60
2022/07/25 04:36:29;;;;;;;15.60;14.20;;;;;;;27.59;46.25;95112.69;6253011;27;103352;-57
2022/07/25 04:39:33;;;;;;;16.57;15.03;;;;;;;27.33;46.97;95121.13;6267821;27;103080;-62
2022/07/25 04:42:37;;;;;;;15.60;14.30;;;;;;;27.05;47.65;95114.84;6259289;27;104374;-60
2022/07/25 04:45:40;;;;;;;15.20;13.87;;;;;;;27.04;48.17;95115.94;6262299;27;103293;-61
2022/07/25 04:48:44;;;;;;;16.50;14.20;;;;;;;27.18;47.00;95109.13;6256574;27;103391;-63
2022/07/25 04:51:48;;;;;;;15.07;13.77;;;;;;;27.02;47.65;95110.13;6279920;27;102978;-60
2022/07/25 04:54:52;;;;;;;14.87;13.57;;;;;;;27.06;48.03;95114.53;6284188;27;103927;-60
2022/07/25 04:57:56;;;;;;;14.83;13.63;;;;;;;27.27;46.99;95110.97;6247973;27;104850;-61
2022/07/25 05:00:59;;;;;;;14.70;13.37;;;;;;;27.08;47.12;95124.94;6270063;27;103065;-60
2022/07/25 05:04:02;;;;;;;14.97;13.87;;;;;;;27.47;46.44;95126.16;6268347;27;102939;-61
2022/07/25 05:07:06;;;;;;;14.20;13.10;;;;;;;27.70;45.66;95119.16;6272084;27;103177;-63
2022/07/25 05:10:10;;;;;;;14.40;13.30;;;;;;;27.87;45.42;95122.72;6255129;27;104581;-60
2022/07/25 05:13:15;;;;;;;13.20;12.00;;;;;;;27.96;43.80;95118.78;6267282;27;103100;-58
2022/07/25 05:16:18;;;;;;;22.60;11.93;;;;;;;27.98;43.10;95121.91;6269250;27;103221;-60
2022/07/25 05:19:21;;;;;;;11.10;10.17;;;;;;;28.05;42.66;95122.09;6271290;27;104393;-61
2022/07/25 05:22:24;;;;;;;10.50;9.60;;;;;;;28.05;41.97;95124.00;6268529;27;103278;-61
2022/07/25 05:25:31;;;;;;;11.47;10.40;;;;;;;28.03;42.11;95127.03;6276237;27;103139;-60
2022/07/25 05:28:38;;;;;;;11.20;9.80;;;;;;;28.18;41.89;95116.69;6270742;27;103618;-60
2022/07/25 05:31:41;;;;;;;11.27;10.23;;;;;;;28.08;42.55;95131.44;6259047;27;104802;-61
2022/07/25 05:34:45;;;;;;;10.40;9.50;;;;;;;27.95;42.00;95117.22;6273993;27;103444;-62
2022/07/25 05:37:48;;;;;;;10.03;9.20;;;;;;;27.83;42.67;95121.81;6259634;27;103134;-60
2022/07/25 05:40:52;;;;;;;10.50;9.60;;;;;;;27.70;42.37;95118.38;6259116;27;104035;-60
2022/07/25 05:43:56;;;;;;;10.60;9.77;;;;;;;27.68;42.34;95115.25;6263445;27;103914;-62
2022/07/25 05:46:59;;;;;;;10.20;9.30;;;;;;;27.63;42.32;95118.19;6267972;27;104013;-62
2022/07/25 05:50:03;;;;;;;11.23;9.47;;;;;;;27.61;43.10;95115.06;6241122;27;103368;-61
2022/07/25 05:53:06;;;;;;;10.37;9.47;;;;;;;27.64;42.68;95117.84;6230947;27;103387;-59
2022/07/25 05:56:09;;;;;;;10.40;9.60;;;;;;;27.71;43.36;95103.81;6228588;28;104487;-62
2022/07/25 05:59:14;;;;;;;10.30;9.40;;;;;;;27.95;42.22;95105.69;6234081;27;103299;-60
2022/07/25 06:02:17;;;;;;;10.27;9.33;;;;;;;28.14;42.45;95113.13;6234414;28;103357;-61
2022/07/25 06:05:20;;;;;;;10.67;9.83;;;;;;;28.34;41.85;95104.03;6222936;27;105170;-61
2022/07/25 06:08:23;;;;;;;10.80;9.83;;;;;;;28.48;41.78;95109.06;6231986;27;103059;-60
2022/07/25 06:11:29;;;;;;;10.37;9.50;;;;;;;28.55;41.14;95104.63;6232737;27;103525;-62
2022/07/25 06:14:34;;;;;;;10.90;10.07;;;;;;;28.69;41.33;95103.44;6231577;28;104137;-60
2022/07/25 06:17:37;;;;;;;9.90;9.20;;;;;;;28.79;41.76;95109.09;6221827;28;104014;-60
2022/07/25 06:20:40;;;;;;;10.60;9.03;;;;;;;28.85;41.94;95102.31;6231924;27;103179;-60
2022/07/25 06:23:43;;;;;;;10.47;9.53;;;;;;;28.93;41.86;95109.44;6249087;27;103397;-60
2022/07/25 06:26:47;;;;;;;10.73;9.83;;;;;;;28.97;41.50;95104.13;6264976;27;103678;-60
2022/07/25 06:29:51;;;;;;;11.43;10.40;;;;;;;28.92;41.80;95110.56;6250879;27;103418;-61
2022/07/25 06:32:54;;;;;;;10.90;9.90;;;;;;;28.84;42.15;95114.22;6261362;27;103959;-61
2022/07/25 06:35:58;;;;;;;10.70;9.90;;;;;;;28.78;42.60;95107.53;6260969;27;104459;-61
2022/07/25 06:39:02;;;;;;;10.77;9.97;;;;;;;28.78;43.01;95110.22;6251026;27;103019;-61
2022/07/25 06:42:05;;;;;;;10.60;9.87;;;;;;;28.79;43.17;95102.91;6261954;27;103358;-60
2022/07/25 06:45:12;;;;;;;10.70;9.70;;;;;;;28.80;42.34;95101.78;6261565;27;103392;-61
2022/07/25 06:48:15;;;;;;;9.47;8.77;;;;;;;28.75;42.59;95097.44;6259077;27;104149;-60
2022/07/25 06:51:19;;;;;;;10.53;9.63;;;;;;;28.84;43.22;95094.56;6255095;27;103642;-59
2022/07/25 06:54:23;;;;;;;11.20;10.13;;;;;;;28.98;43.24;95094.91;6258413;27;103519;-59
2022/07/25 06:57:26;;;;;;;10.70;10.00;;;;;;;29.16;42.38;95106.13;6279608;27;104436;-61
2022/07/25 07:00:30;;;;;;;11.37;10.43;;;;;;;29.26;42.07;95099.44;6262775;27;103253;-60
2022/07/25 07:03:37;;;;;;;10.53;9.73;;;;;;;29.41;41.44;95091.31;6251149;27;103011;-60
2022/07/25 07:06:40;;;;;;;10.90;10.00;;;;;;;29.55;41.79;95101.63;6261545;27;103258;-61
2022/07/25 07:09:44;;;;;;;9.90;9.17;;;;;;;29.57;42.07;95101.25;6259534;27;103891;-60
2022/07/25 07:12:47;;;;;;;10.53;9.60;;;;;;;29.69;41.61;95101.16;6262901;27;104391;-60
2022/07/25 07:15:52;;;;;;;10.73;9.93;;;;;;;29.77;41.12;95090.19;6273241;27;103032;-57
2022/07/25 07:18:55;;;;;;;10.43;9.63;;;;;;;29.78;41.46;95083.66;6262006;27;103814;-57
2022/07/25 07:21:58;;;;;;;12.00;10.53;;;;;;;29.34;40.51;95090.38;6259202;27;103606;-59
2022/07/25 07:25:01;;;;;;;11.17;10.23;;;;;;;28.94;39.81;95078.66;6258591;27;103236;-60
2022/07/25 07:28:07;;;;;;;10.40;9.27;;;;;;;28.55;40.72;95083.09;6254275;27;103724;-57
2022/07/25 07:31:12;;;;;;;11.27;10.37;;;;;;;28.49;40.20;95087.16;6252961;27;103293;-59
2022/07/25 07:34:19;;;;;;;10.90;10.20;;;;;;;28.39;40.32;95084.94;6241059;27;103611;-60
2022/07/25 07:37:22;;;;;;;11.20;10.20;;;;;;;28.31;39.97;95080.50;6254029;27;103169;-60
2022/07/25 07:40:25;;;;;;;10.47;9.50;;;;;;;28.36;40.25;95082.94;6254629;27;103447;-62
2022/07/25 07:43:30;;;;;;;11.20;10.40;;;;;;;28.32;39.84;95080.16;6254707;27;103240;-61
2022/07/25 07:46:35;;;;;;;11.57;9.67;;;;;;;28.70;39.79;95078.06;6254314;27;104107;-62
2022/07/25 07:49:38;;;;;;;10.80;10.00;;;;;;;29.10;39.60;95086.78;6244899;27;103094;-61
2022/07/25 07:52:42;;;;;;;11.53;10.53;;;;;;;29.22;39.97;95078.56;6262408;27;103612;-61
2022/07/25 07:55:44;;;;;;;11.10;10.20;;;;;;;29.38;39.66;95075.03;6259878;27;104306;-61
2022/07/25 07:58:48;;;;;;;12.00;10.87;;;;;;;29.44;39.78;95076.34;6246949;27;103862;-62
2022/07/25 08:01:52;;;;;;;10.47;9.67;;;;;;;29.57;39.73;95075.09;6264634;27;103300;-61
2022/07/25 08:04:55;;;;;;;11.00;10.13;;;;;;;29.70;39.64;95067.66;6255503;27;103171;-60
2022/07/25 08:07:59;;;;;;;10.77;9.83;;;;;;;29.76;40.10;95069.75;6261545;27;103657;-60
2022/07/25 08:11:03;;;;;;;10.50;9.70;;;;;;;29.73;39.85;95072.34;6243988;27;103450;-61
2022/07/25 08:14:06;;;;;;;11.50;10.60;;;;;;;29.82;39.82;95073.72;6255444;27;103364;-60
2022/07/25 08:17:11;;;;;;;11.43;10.43;;;;;;;29.84;39.71;95071.44;6254052;27;104059;-62
2022/07/25 08:20:15;;;;;;;11.23;10.33;;;;;;;29.72;40.20;95074.25;6251004;27;103384;-61
2022/07/25 08:23:38;;;;;;;11.17;10.13;;;;;;;29.90;39.92;95068.44;6248532;27;104261;-60
2022/07/25 08:26:41;;;;;;;10.23;9.53;;;;;;;29.96;39.76;95070.53;6254118;27;103124;-59
2022/07/25 08:29:44;;;;;;;10.50;9.60;;;;;;;29.95;39.82;95068.19;6250985;27;103976;-59
2022/07/25 08:32:52;;;;;;;9.83;9.13;;;;;;;29.92;39.45;95066.97;6243932;27;103278;-61
2022/07/25 08:35:57;;;;;;;10.60;9.77;;;;;;;29.94;40.04;95063.91;6254582;27;103188;-60
2022/07/25 08:39:00;;;;;;;14.73;10.43;;;;;;;29.66;39.34;95064.91;6251106;27;103563;-60
2022/07/25 08:42:04;;;;;;;11.47;10.33;;;;;;;29.66;39.49;95056.81;6253524;27;103244;-61
2022/07/25 08:45:15;;;;;;;11.23;10.13;;;;;;;29.61;39.66;95062.47;6244933;27;103494;-60
2022/07/25 08:48:21;;;;;;;13.40;10.33;;;;;;;29.65;40.76;95062.56;6252318;27;103387;-59
2022/07/25 08:51:24;;;;;;;15.20;10.93;;;;;;;29.59;40.75;95056.66;6258205;27;103825;-60
2022/07/25 08:54:28;;;;;;;12.13;11.07;;;;;;;29.60;41.04;95052.81;6270080;27;104132;-59
2022/07/25 08:57:31;;;;;;;16.47;11.00;;;;;;;29.64;41.12;95061.78;6252041;27;104147;-60
2022/07/25 09:00:34;;;;;;;29.60;11.97;;;;;;;29.57;41.35;95052.72;6263616;27;103636;-60
2022/07/25 09:03:39;;;;;;;25.40;12.33;;;;;;;29.48;41.23;95061.03;6264325;27;103033;-59
2022/07/25 09:06:49;;;;;;;20.03;11.20;;;;;;;29.53;40.81;95049.94;6265006;27;104125;-60
2022/07/25 09:09:53;;;;;;;28.73;11.23;;;;;;;29.68;41.13;95059.16;6256537;27;103219;-60
2022/07/25 09:12:58;;;;;;;23.20;11.60;;;;;;;29.79;40.76;95052.84;6271775;27;104194;-60
2022/07/25 09:16:04;;;;;;;20.07;10.97;;;;;;;29.92;40.40;95052.69;6269448;27;103779;-59
2022/07/25 09:19:12;;;;;;;61.60;15.90;;;;;;;30.02;40.22;95044.78;6248927;27;103897;-60
2022/07/25 09:22:15;;;;;;;82.53;16.87;;;;;;;30.02;40.56;95044.00;6264211;27;103590;-58
2022/07/25 09:25:28;;;;;;;60.60;14.70;;;;;;;29.88;38.36;95039.13;6276131;27;103357;-59
2022/07/25 09:28:32;;;;;;;282.03;33.90;;;;;;;29.82;38.30;95035.16;6251409;27;103333;-58
2022/07/25 09:31:35;;;;;;;182.40;27.13;;;;;;;29.97;38.09;95030.81;6266034;27;103330;-59
2022/07/25 09:34:43;;;;;;;150.90;24.90;;;;;;;29.93;38.50;95029.97;6277991;27;102802;-58
2022/07/25 09:37:46;;;;;;;132.57;23.43;;;;;;;29.95;38.94;95030.41;6272382;27;103093;-58
2022/07/25 09:40:57;;;;;;;65.90;16.60;;;;;;;29.92;39.13;95033.81;6263690;27;104379;-60
2022/07/25 09:44:00;;;;;;;73.60;16.47;;;;;;;30.02;39.23;95033.22;6252041;27;103243;-60
2022/07/25 09:47:10;;;;;;;57.03;17.33;;;;;;;30.14;40.03;95027.66;6271175;27;104210;-59
2022/07/25 09:50:16;;;;;;;56.77;15.30;;;;;;;30.31;40.44;95031.84;6280230;27;104355;-60
2022/07/25 09:53:20;;;;;;;48.50;15.47;;;;;;;30.45;40.86;95025.91;6263299;27;103090;-58
2022/07/25 09:56:23;;;;;;;41.17;14.00;;;;;;;30.53;41.49;95025.66;6259259;27;102937;-63
2022/07/25 09:59:26;;;;;;;46.83;14.40;;;;;;;30.46;42.10;95017.44;6259269;27;103190;-61
2022/07/25 10:02:41;;;;;;;48.73;16.33;;;;;;;30.34;42.00;95015.69;6273053;27;104275;-59
2022/07/25 10:05:59;;;;;;;71.80;19.37;;;;;;;30.13;42.52;95026.09;6271854;27;104404;-61
2022/07/25 10:09:03;;;;;;;71.00;17.70;;;;;;;30.24;42.15;95019.03;6261520;27;103307;-59
2022/07/25 10:12:08;;;;;;;58.53;18.10;;;;;;;30.43;42.27;95021.66;6259007;27;104591;-59
2022/07/25 10:15:15;;;;;;;54.47;17.40;;;;;;;30.43;42.18;95018.97;6252455;27;104313;-62
2022/07/25 10:18:20;;;;;;;46.73;15.73;;;;;;;30.42;42.08;95008.53;6265555;27;102970;-60
2022/07/25 10:21:26;;;;;;;48.40;16.40;;;;;;;30.45;41.97;95009.72;6256293;27;103388;-60
2022/07/25 10:24:34;;;;;;;47.87;15.53;;;;;;;30.47;41.43;95008.22;6255284;27;104525;-60
2022/07/25 10:27:43;;;;;;;45.57;14.17;;;;;;;30.35;42.05;95003.75;6248411;27;104419;-60
2022/07/25 10:30:46;;;;;;;36.03;13.80;;;;;;;30.31;41.69;95005.63;6264447;27;103066;-61
2022/07/25 10:33:52;;;;;;;42.30;13.53;;;;;;;30.21;41.39;95006.22;6267019;27;102963;-60
2022/07/25 10:36:56;;;;;;;35.07;14.00;;;;;;;30.01;41.74;94999.28;6258165;27;103100;-60
2022/07/25 10:40:00;;;;;;;37.50;14.50;;;;;;;29.95;41.37;94993.41;6230496;27;103181;-60
2022/07/25 10:43:08;;;;;;;28.67;12.37;;;;;;;29.84;40.21;94979.69;6265858;27;103183;-58
2022/07/25 10:46:13;;;;;;;21.53;11.30;;;;;;;29.72;39.20;94987.94;6268634;27;104233;-60
2022/07/25 10:49:19;;;;;;;68.17;15.13;;;;;;;29.68;40.05;94989.78;6251767;27;103119;-60
2022/07/25 10:52:41;;;;;;;128.17;21.70;;;;;;;29.70;39.99;94979.41;6259637;27;103427;-61
2022/07/25 10:55:47;;;;;;;140.50;23.20;;;;;;;29.75;39.48;94976.47;6258046;27;103134;-60
2022/07/25 10:59:07;;;;;;;156.30;24.83;;;;;;;29.94;40.14;94967.56;6277428;27;104208;-60
2022/07/25 11:02:15;;;;;;;163.53;24.73;;;;;;;30.07;39.70;94965.44;6246610;27;103640;-60
2022/07/25 11:05:18;;;;;;;152.87;22.43;;;;;;;30.13;40.58;94977.50;6270005;27;103149;-60
2022/07/25 11:08:32;;;;;;;103.60;19.37;;;;;;;30.13;40.15;94974.81;6260825;27;103329;-61
2022/07/25 11:11:37;;;;;;;95.10;17.77;;;;;;;30.14;40.22;94970.97;6247401;27;104114;-61
2022/07/25 11:14:42;;;;;;;86.80;18.10;;;;;;;30.19;40.31;94969.91;6270906;27;104212;-61
2022/07/25 11:17:50;;;;;;;68.87;16.90;;;;;;;30.27;40.23;94969.69;6262463;27;103133;-60
2022/07/25 11:20:59;;;;;;;65.40;15.77;;;;;;;30.25;40.06;94963.88;6255110;27;103576;-60
2022/07/25 11:24:09;;;;;;;51.47;14.60;;;;;;;30.27;39.93;94960.81;6247790;27;103136;-60
2022/07/25 11:27:20;;;;;;;59.07;15.77;;;;;;;30.35;39.78;94948.97;6263080;27;103387;-61
2022/07/25 11:30:23;;;;;;;43.80;13.60;;;;;;;30.33;39.70;94946.63;6283325;27;103045;-60
2022/07/25 11:33:26;;;;;;;36.47;12.60;;;;;;;30.34;39.68;94942.00;6273477;27;104414;-60
2022/07/25 11:36:30;;;;;;;36.07;11.90;;;;;;;30.26;40.12;94943.06;6259402;27;104048;-60
2022/07/25 11:39:36;;;;;;;31.63;12.87;;;;;;;30.13;40.58;94942.41;6271581;27;104658;-61
2022/07/25 11:42:41;;;;;;;29.67;11.53;;;;;;;30.01;40.87;94935.28;6262274;27;103275;-61
2022/07/25 11:45:44;;;;;;;27.23;11.83;;;;;;;29.94;40.86;94935.16;6260265;27;103381;-60
2022/07/25 11:48:48;;;;;;;21.57;10.97;;;;;;;29.89;41.13;94926.56;6272420;27;104099;-61
2022/07/25 11:51:51;;;;;;;23.50;10.53;;;;;;;29.78;40.93;94929.88;6257317;27;103390;-60
2022/07/25 11:54:57;;;;;;;21.73;11.33;;;;;;;29.79;41.08;94936.81;6261720;27;103274;-60
2022/07/25 11:58:02;;;;;;;16.90;9.60;;;;;;;29.62;41.01;94933.81;6250315;27;103477;-61
2022/07/25 12:01:12;;;;;;;19.00;9.90;;;;;;;29.70;41.04;94924.69;6263762;27;103217;-61
2022/07/25 12:04:17;;;;;;;14.70;9.83;;;;;;;29.84;40.76;94928.44;6272604;27;104301;-61
2022/07/25 12:07:21;;;;;;;13.13;9.90;;;;;;;29.95;40.23;94914.34;6267795;27;103265;-61
2022/07/25 12:10:34;;;;;;;13.70;9.77;;;;;;;30.00;39.70;94922.16;6265884;27;103104;-61
2022/07/25 12:13:37;;;;;;;13.27;9.43;;;;;;;30.06;39.96;94916.06;6258480;27;103928;-60
2022/07/25 12:16:41;;;;;;;14.70;9.60;;;;;;;30.10;39.41;94926.94;6263544;27;103319;-61
2022/07/25 12:19:45;;;;;;;14.40;10.23;;;;;;;30.16;39.28;94893.09;6255939;27;103210;-61
2022/07/25 12:22:50;;;;;;;16.80;9.30;;;;;;;30.20;39.35;94901.28;6256663;27;103479;-60
2022/07/25 12:25:55;;;;;;;12.10;9.20;;;;;;;30.22;39.52;94897.06;6264650;27;103327;-61
2022/07/25 12:28:58;;;;;;;18.13;10.50;;;;;;;30.21;39.83;94898.22;6268668;27;103124;-60
2022/07/25 12:32:01;;;;;;;38.40;13.07;;;;;;;30.25;40.01;94899.06;6243761;27;104768;-60
2022/07/25 12:35:06;;;;;;;25.83;10.13;;;;;;;30.28;39.89;94894.88;6258856;27;103007;-60
2022/07/25 12:38:09;;;;;;;26.03;10.60;;;;;;;30.24;39.70;94894.81;6281498;27;104190;-60
2022/07/25 12:41:14;;;;;;;23.33;10.90;;;;;;;30.19;39.07;94903.22;6262198;27;104365;-60
2022/07/25 12:44:20;;;;;;;18.90;8.80;;;;;;;30.17;39.18;94900.06;6251158;27;104033;-60
2022/07/25 12:47:23;;;;;;;15.87;9.97;;;;;;;30.06;39.52;94888.31;6262227;27;104197;-61
2022/07/25 12:50:26;;;;;;;20.07;10.57;;;;;;;29.99;39.51;94888.19;6256378;27;103191;-60
2022/07/25 12:53:30;;;;;;;22.50;10.93;;;;;;;29.89;38.95;94883.41;6261075;27;106505;-60
2022/07/25 12:56:35;;;;;;;31.63;9.93;;;;;;;29.75;38.59;94878.56;6266410;27;104255;-60
2022/07/25 12:59:38;;;;;;;25.40;9.90;;;;;;;29.75;38.99;94881.25;6264359;27;104551;-60
2022/07/25 13:02:41;;;;;;;25.50;11.07;;;;;;;29.69;39.05;94869.97;6252226;27;103139;-60
2022/07/25 13:05:44;;;;;;;27.83;11.10;;;;;;;29.67;39.04;94877.63;6246460;27;104053;-62
2022/07/25 13:08:47;;;;;;;16.50;9.33;;;;;;;29.67;37.99;94874.94;6269191;27;103734;-60
2022/07/25 13:11:52;;;;;;;18.47;8.23;;;;;;;29.75;37.46;94873.16;6256877;27;104292;-61
2022/07/25 13:14:55;;;;;;;13.93;9.30;;;;;;;29.87;37.66;94864.88;6274699;27;103433;-60
2022/07/25 13:17:58;;;;;;;12.90;8.57;;;;;;;29.88;37.68;94863.72;6262424;27;103241;-61
2022/07/25 13:21:02;;;;;;;13.33;8.00;;;;;;;29.99;37.70;94863.91;6270890;27;103304;-61
2022/07/25 13:24:07;;;;;;;8.77;7.67;;;;;;;29.99;34.12;94858.50;6281952;27;103374;-61
2022/07/25 13:27:11;;;;;;;7.63;7.03;;;;;;;29.99;33.48;94855.81;6274766;27;103606;-61
2022/07/25 13:30:14;;;;;;;7.50;6.97;;;;;;;29.91;33.78;94849.53;6253034;27;103320;-59
2022/07/25 13:33:17;;;;;;;10.30;7.90;;;;;;;30.03;34.98;94859.34;6257891;27;103276;-60
2022/07/25 13:36:21;;;;;;;9.27;8.27;;;;;;;30.10;35.34;94856.78;6274081;27;104338;-60
2022/07/25 13:39:24;;;;;;;13.20;9.20;;;;;;;30.20;35.37;94860.78;6250567;27;105177;-60
2022/07/25 13:42:28;;;;;;;10.20;8.27;;;;;;;30.24;35.70;94856.22;6251473;27;103059;-60
2022/07/25 13:45:31;;;;;;;8.97;8.10;;;;;;;30.24;36.34;94856.22;6253533;27;103359;-60
2022/07/25 13:48:34;;;;;;;9.40;7.30;;;;;;;30.26;36.33;94860.13;6257427;27;103737;-61
2022/07/25 13:51:38;;;;;;;8.77;7.97;;;;;;;30.16;36.73;94862.63;6244236;27;103965;-61
2022/07/25 13:54:41;;;;;;;7.83;7.03;;;;;;;30.06;37.30;94850.53;6267900;27;103100;-62
2022/07/25 13:57:45;;;;;;;8.50;7.80;;;;;;;29.98;37.54;94851.56;6278218;27;103984;-61
2022/07/25 14:00:49;;;;;;;8.03;7.43;;;;;;;29.90;37.73;94844.47;6253077;27;103050;-61